LIPX/VRN METAR and TAF weather

Enter ICAO airport designator
Station Type Date Time Source
LIPX METAR 2019/05/26 22:50 UTC NOAA

LIPX 262250Z 07006KT 040V100 9999 BKN060 18/13 Q1013


Station Type Date Time Source
LIPX Decoded METAR 2019/05/26 22:50 UTC NOAA

Verona / Villafranca, Italy (LIPX) 45-23N 010-52E 68M
May 26, 2019 - 06:50 PM EDT / 2019.05.26 2250 UTC
Wind: from the ENE (070 degrees) at 7 MPH (6 KT) (direction variable):0
Visibility: greater than 7 mile(s):0
Sky conditions: mostly cloudy
Temperature: 64 F (18 C)
Dew Point: 55 F (13 C)
Relative Humidity: 72%
Pressure (altimeter): 29.91 in. Hg (1013 hPa)
ob: LIPX 262250Z 07006KT 040V100 9999 BKN060 18/13 Q1013
cycle: 23

Station Type Date Time Source
LIPX TAF 2014/04/22 15:24 UTC NOAA

TAF LIPX 221400Z 2215/2324 VRB05KT 9999 SCT030 SCT070
TEMPO 2215/2218 SCT025CB SCT080 PROB30
TEMPO 2215/2218 TS

Example: see airport list